createdAt,value
2019-06-26T00:00:51.661Z,101561.72
2019-06-26T00:04:53.871Z,101561.98
2019-06-26T00:08:56.096Z,101552.39
2019-06-26T00:12:58.322Z,101555.02
2019-06-26T00:17:00.542Z,101562.41
2019-06-26T00:21:02.735Z,101569.52
2019-06-26T00:25:04.959Z,101561.06
2019-06-26T00:29:07.214Z,101558.32
2019-06-26T00:33:09.425Z,101547.00
2019-06-26T00:37:11.643Z,101546.19
2019-06-26T00:41:13.859Z,101531.20
2019-06-26T00:45:16.067Z,101538.63
2019-06-26T00:49:18.293Z,101537.83
2019-06-26T00:53:20.527Z,101539.80
2019-06-26T00:57:22.752Z,101536.22
2019-06-26T01:01:24.964Z,101537.01
2019-06-26T01:05:27.192Z,101535.43
2019-06-26T01:09:29.406Z,101528.08
2019-06-26T01:13:31.638Z,101527.95
2019-06-26T01:17:33.912Z,101522.16
2019-06-26T01:21:36.122Z,101528.34
2019-06-26T01:25:38.330Z,101522.55
2019-06-26T01:29:40.546Z,101525.58
2019-06-26T01:33:42.772Z,101522.30
2019-06-26T01:37:44.988Z,101525.05
2019-06-26T01:41:47.201Z,101525.67
2019-06-26T01:45:49.438Z,101525.54
2019-06-26T01:49:51.657Z,101525.70
2019-06-26T01:53:53.895Z,101523.65
2019-06-26T01:57:56.096Z,101521.84
2019-06-26T02:01:58.320Z,101521.67
2019-06-26T02:06:00.561Z,101520.06
2019-06-26T02:10:02.771Z,101519.10
2019-06-26T02:14:04.995Z,101521.33
2019-06-26T02:18:08.789Z,101522.25
2019-06-26T02:22:11.029Z,101515.42
2019-06-26T02:26:13.322Z,101514.11
2019-06-26T02:30:15.465Z,101518.58
2019-06-26T02:34:17.684Z,101513.32
2019-06-26T02:38:19.904Z,101511.22
2019-06-26T02:42:22.114Z,101507.53
2019-06-26T02:46:24.344Z,101506.62
2019-06-26T02:50:26.543Z,101501.10
2019-06-26T02:54:28.764Z,101505.83
2019-06-26T02:58:31.018Z,101502.55
2019-06-26T03:02:33.216Z,101500.45
2019-06-26T03:06:35.415Z,101503.73
2019-06-26T03:10:37.643Z,101500.84
2019-06-26T03:14:39.889Z,101494.67
2019-06-26T03:18:42.090Z,101492.30
2019-06-26T03:22:44.297Z,101493.09
2019-06-26T03:26:46.544Z,101493.88
2019-06-26T03:30:48.751Z,101489.55
2019-06-26T03:34:50.972Z,101490.34
2019-06-26T03:38:53.213Z,101490.60
2019-06-26T03:42:55.428Z,101482.06
2019-06-26T03:46:57.674Z,101488.53
2019-06-26T03:50:59.926Z,101492.73
2019-06-26T03:55:02.142Z,101494.31
2019-06-26T03:59:04.365Z,101493.66
2019-06-26T04:03:06.616Z,101486.59
2019-06-26T04:07:08.832Z,101498.16
2019-06-26T04:11:11.051Z,101493.95
2019-06-26T04:15:13.239Z,101490.73
2019-06-26T04:19:15.478Z,101484.03
2019-06-26T04:23:17.691Z,101486.00
2019-06-26T04:27:19.913Z,101491.37
2019-06-26T04:31:22.124Z,101492.83
2019-06-26T04:35:24.335Z,101500.73
2019-06-26T04:39:26.540Z,101491.27
2019-06-26T04:43:28.790Z,101497.05
2019-06-26T04:47:31.011Z,101491.00
2019-06-26T04:51:33.229Z,101494.97
2019-06-26T04:55:35.461Z,101492.33
2019-06-26T05:04:02.413Z,101493.39
2019-06-26T05:08:04.658Z,101496.44
2019-06-26T05:12:06.881Z,101498.27
2019-06-26T05:16:15.068Z,101496.69
2019-06-26T05:20:13.031Z,101498.64
2019-06-26T05:24:15.198Z,101506.67
2019-06-26T05:28:17.384Z,101509.06
2019-06-26T05:32:19.578Z,101508.39
2019-06-26T05:36:21.757Z,101515.49
2019-06-26T05:40:23.958Z,101518.37
2019-06-26T05:44:26.148Z,101516.66
2019-06-26T05:48:28.345Z,101525.60
2019-06-26T05:52:30.460Z,101528.23
2019-06-26T05:56:32.679Z,101529.27
2019-06-26T06:00:34.847Z,101527.17
2019-06-26T06:04:37.029Z,101534.83
2019-06-26T06:08:39.208Z,101534.42
2019-06-26T06:12:41.351Z,101537.98
2019-06-26T06:16:47.780Z,101543.77
2019-06-26T06:20:47.389Z,101550.87
2019-06-26T06:24:49.580Z,101554.15
2019-06-26T06:28:51.862Z,101561.77
2019-06-26T06:32:53.994Z,101557.83
2019-06-26T06:36:56.188Z,101561.50
2019-06-26T06:40:58.344Z,101563.90
2019-06-26T06:45:00.537Z,101552.57
2019-06-26T06:49:02.723Z,101553.09
2019-06-26T06:53:04.869Z,101560.59
2019-06-26T06:57:07.059Z,101563.88
2019-06-26T07:01:09.253Z,101567.95
2019-06-26T07:05:11.469Z,101580.05
2019-06-26T07:09:13.636Z,101591.11
2019-06-26T07:13:15.840Z,101593.08
2019-06-26T07:17:21.091Z,101591.88
2019-06-26T07:21:21.869Z,101590.96
2019-06-26T07:25:24.072Z,101597.67
2019-06-26T07:29:26.262Z,101596.36
2019-06-26T07:33:28.498Z,101598.86
2019-06-26T07:37:30.704Z,101599.51
2019-06-26T07:41:32.877Z,101592.02
2019-06-26T07:45:35.102Z,101602.80
2019-06-26T07:49:37.304Z,101611.89
2019-06-26T07:53:39.506Z,101611.91
2019-06-26T07:57:41.727Z,101611.62
2019-06-26T08:01:43.936Z,101613.47
2019-06-26T08:05:46.114Z,101626.41
2019-06-26T08:09:48.326Z,101628.77
2019-06-26T08:13:50.551Z,101638.11
2019-06-26T08:18:00.425Z,101644.30
2019-06-26T08:21:56.667Z,101656.67
2019-06-26T08:25:58.864Z,101655.36
2019-06-26T08:30:01.260Z,101669.17
2019-06-26T08:34:03.524Z,101659.44
2019-06-26T08:38:11.278Z,101669.57
2019-06-26T08:42:09.619Z,101665.07
2019-06-26T08:46:11.854Z,101675.60
2019-06-26T08:50:14.054Z,101674.77
2019-06-26T08:54:16.273Z,101686.12
2019-06-26T08:58:18.493Z,101689.75
2019-06-26T09:02:20.775Z,101696.33
2019-06-26T09:06:23.002Z,101698.88
2019-06-26T09:10:25.213Z,101703.45
2019-06-26T09:14:27.431Z,101710.31
2019-06-26T09:18:35.528Z,101712.98
2019-06-26T09:22:33.533Z,101716.36
2019-06-26T09:26:35.830Z,101720.96
2019-06-26T09:30:38.091Z,101726.81
2019-06-26T09:34:40.288Z,101737.84
2019-06-26T09:38:42.563Z,101739.97
2019-06-26T09:42:44.854Z,101743.78
2019-06-26T09:46:47.070Z,101736.78
2019-06-26T09:50:49.362Z,101738.34
2019-06-26T09:54:51.679Z,101731.13
2019-06-26T15:44:16.094Z,102033.79
2019-06-26T15:48:18.317Z,102034.17
2019-06-26T15:52:20.536Z,102033.58
2019-06-26T15:56:22.760Z,102040.83
2019-06-26T16:00:25.004Z,102044.66
2019-06-26T16:04:27.244Z,102058.50
2019-06-26T16:08:29.470Z,102056.52
2019-06-26T16:12:31.683Z,102049.92
2019-06-26T16:16:35.440Z,102059.69
2019-06-26T16:20:37.668Z,102058.11
2019-06-26T16:24:39.891Z,102058.23
2019-06-26T16:28:42.110Z,102061.50
2019-06-26T16:32:44.331Z,102051.66
2019-06-26T16:36:46.577Z,102053.33
2019-06-26T16:40:48.837Z,102049.77
2019-06-26T16:44:51.063Z,102049.91
2019-06-26T16:48:53.280Z,102050.04
2019-06-26T16:52:55.616Z,102059.80
2019-06-26T16:56:57.909Z,102050.70
2019-06-26T17:01:00.160Z,102047.92
2019-06-26T17:05:02.376Z,102048.02
2019-06-26T17:09:04.793Z,102051.75
2019-06-26T17:13:07.022Z,102048.85
2019-06-26T17:17:09.267Z,102063.58
2019-06-26T17:21:11.493Z,102052.51
2019-06-26T17:25:13.737Z,102063.71
2019-06-26T17:29:15.966Z,102066.61
2019-06-26T17:33:18.186Z,102077.67
2019-06-26T17:37:20.409Z,102066.21
2019-06-26T17:41:22.674Z,102075.05
2019-06-26T17:45:24.880Z,102066.70
2019-06-26T17:49:27.116Z,102073.41
2019-06-26T17:53:29.405Z,102081.72
2019-06-26T17:57:31.653Z,102083.05
2019-06-26T18:01:33.963Z,102090.63
2019-06-26T18:05:36.205Z,102087.08
2019-06-26T18:09:38.426Z,102089.05
2019-06-26T18:13:40.669Z,102093.91
2019-06-26T18:17:42.929Z,102094.05
2019-06-26T18:21:45.167Z,102099.31
2019-06-26T18:25:53.750Z,102096.94
2019-06-26T18:29:51.280Z,102101.28
2019-06-26T18:33:53.495Z,102102.28
2019-06-26T18:37:55.735Z,102106.30
2019-06-26T18:41:57.983Z,102107.48
2019-06-26T18:46:00.260Z,102121.77
2019-06-26T18:50:02.505Z,102111.02
2019-06-26T18:54:04.803Z,102114.97
2019-06-26T18:58:07.175Z,102104.08
2019-06-26T19:02:09.527Z,102118.25
2019-06-26T19:06:11.855Z,102107.86
2019-06-26T19:10:14.027Z,102112.91
2019-06-26T19:14:16.344Z,102125.24
2019-06-26T19:18:19.617Z,102120.40
2019-06-26T19:22:21.869Z,102138.43
2019-06-26T19:26:24.089Z,102142.48
2019-06-26T19:30:26.315Z,102143.48
2019-06-26T19:34:28.567Z,102149.13
2019-06-26T19:38:30.812Z,102144.66
2019-06-26T19:42:33.037Z,102147.47
2019-06-26T19:46:35.280Z,102154.87
2019-06-26T19:50:37.505Z,102158.34
2019-06-26T19:54:39.727Z,102160.80
2019-06-26T19:58:41.948Z,102162.83
2019-06-26T20:02:44.189Z,102172.27
2019-06-26T20:06:46.467Z,102168.10
2019-06-26T20:10:48.647Z,102162.80
2019-06-26T20:14:50.892Z,102165.26
2019-06-26T20:18:53.113Z,102176.14
2019-06-26T20:22:55.344Z,102190.56
2019-06-26T20:26:57.601Z,102192.34
2019-06-26T20:30:59.846Z,102185.97
2019-06-26T20:35:02.155Z,102172.87
2019-06-26T20:39:04.904Z,102182.54
2019-06-26T20:43:09.357Z,102187.95
2019-06-26T20:47:11.668Z,102181.66
2019-06-26T20:51:13.899Z,102188.02
2019-06-26T20:55:16.151Z,102188.08
2019-06-26T20:59:18.399Z,102191.92
2019-06-26T21:03:21.421Z,102198.00
2019-06-26T21:07:23.744Z,102197.22
2019-06-26T21:11:25.981Z,102193.94
2019-06-26T21:15:28.345Z,102196.75
2019-06-26T21:19:30.618Z,102202.94
2019-06-26T21:23:32.845Z,102205.19
2019-06-26T21:27:35.087Z,102204.41
2019-06-26T21:31:37.349Z,102190.06
2019-06-26T21:35:39.586Z,102190.20
2019-06-26T21:39:41.799Z,102186.92
2019-06-26T21:43:44.041Z,102189.56
2019-06-26T21:47:47.958Z,102200.23
2019-06-26T21:51:50.172Z,102210.51
2019-06-26T21:55:52.386Z,102217.63
2019-06-26T21:59:54.606Z,102207.27
2019-06-26T22:03:56.825Z,102205.42
2019-06-26T22:07:59.071Z,102204.78
2019-06-26T22:12:01.488Z,102195.95
2019-06-26T22:16:03.704Z,102207.41
2019-06-26T22:20:09.768Z,102208.33
2019-06-26T22:24:09.846Z,102215.05
2019-06-26T22:28:12.087Z,102218.62
2019-06-26T22:32:14.294Z,102220.46
2019-06-26T22:36:16.513Z,102219.15
2019-06-26T22:40:18.731Z,102217.44
2019-06-26T22:44:20.964Z,102214.80
2019-06-26T22:48:23.148Z,102207.30
2019-06-26T22:52:25.375Z,102217.05
2019-06-26T22:56:29.413Z,102209.28
2019-06-26T23:00:31.625Z,102215.09
2019-06-26T23:04:33.851Z,102216.01
2019-06-26T23:08:36.061Z,102215.48
2019-06-26T23:12:38.275Z,102215.09
2019-06-26T23:16:40.565Z,102216.41
2019-06-26T23:20:42.723Z,102218.03
2019-06-26T23:24:44.997Z,102218.03
2019-06-26T23:28:47.200Z,102212.20
2019-06-26T23:32:49.422Z,102222.73
2019-06-26T23:36:51.776Z,102222.73
2019-06-26T23:40:54.024Z,102224.62
2019-06-26T23:44:56.236Z,102227.78
2019-06-26T23:48:58.462Z,102232.12
2019-06-26T23:53:00.881Z,102231.34
2019-06-26T23:57:03.097Z,102227.78
